sensor_id;sensor_type;location;lat;lon;timestamp;pressure;altitude;pressure_sealevel;temperature;humidity
61674;BME280;47573;43.832;5.974;2023-04-10T00:03:59;95516.97;;;25.60;60.14
61674;BME280;47573;43.832;5.974;2023-04-10T00:10:39;95517.19;;;25.53;59.82
61674;BME280;47573;43.832;5.974;2023-04-10T00:17:21;95514.06;;;25.44;59.73
61674;BME280;47573;43.832;5.974;2023-04-10T00:24:02;95522.97;;;25.40;59.73
61674;BME280;47573;43.832;5.974;2023-04-10T00:30:42;95507.59;;;25.34;59.60
61674;BME280;47573;43.832;5.974;2023-04-10T00:37:24;95506.72;;;25.28;59.94
61674;BME280;47573;43.832;5.974;2023-04-10T00:44:04;95509.84;;;25.20;59.89
61674;BME280;47573;43.832;5.974;2023-04-10T00:50:45;95519.06;;;25.14;59.97
61674;BME280;47573;43.832;5.974;2023-04-10T00:57:27;95514.59;;;25.08;59.76
61674;BME280;47573;43.832;5.974;2023-04-10T01:04:08;95511.81;;;25.03;59.73
61674;BME280;47573;43.832;5.974;2023-04-10T01:10:55;95512.81;;;24.97;59.52
61674;BME280;47573;43.832;5.974;2023-04-10T01:17:45;95507.28;;;24.92;59.41
61674;BME280;47573;43.832;5.974;2023-04-10T01:24:41;95508.03;;;24.88;59.40
61674;BME280;47573;43.832;5.974;2023-04-10T01:31:35;95500.56;;;24.83;59.52
61674;BME280;47573;43.832;5.974;2023-04-10T01:38:19;95482.47;;;24.77;59.50
61674;BME280;47573;43.832;5.974;2023-04-10T01:45:00;95491.16;;;24.74;59.36
61674;BME280;47573;43.832;5.974;2023-04-10T01:51:45;95488.31;;;24.69;59.57
61674;BME280;47573;43.832;5.974;2023-04-10T01:58:26;95490.16;;;24.63;59.62
61674;BME280;47573;43.832;5.974;2023-04-10T02:05:07;95507.84;;;24.61;59.24
61674;BME280;47573;43.832;5.974;2023-04-10T02:11:53;95510.47;;;24.56;59.53
61674;BME280;47573;43.832;5.974;2023-04-10T02:18:35;95506.03;;;24.50;59.59
61674;BME280;47573;43.832;5.974;2023-04-10T02:25:17;95512.81;;;24.47;59.24
61674;BME280;47573;43.832;5.974;2023-04-10T02:31:59;95497.78;;;24.45;59.42
61674;BME280;47573;43.832;5.974;2023-04-10T02:38:40;95501.81;;;24.42;59.13
61674;BME280;47573;43.832;5.974;2023-04-10T02:45:20;95506.13;;;24.38;59.20
61674;BME280;47573;43.832;5.974;2023-04-10T02:52:02;95505.53;;;24.36;59.06
61674;BME280;47573;43.832;5.974;2023-04-10T02:58:43;95516.03;;;24.28;58.99
61674;BME280;47573;43.832;5.974;2023-04-10T03:05:23;95511.63;;;24.27;58.85
61674;BME280;47573;43.832;5.974;2023-04-10T03:12:05;95512.13;;;24.24;58.54
61674;BME280;47573;43.832;5.974;2023-04-10T03:18:46;95511.31;;;24.23;58.80
61674;BME280;47573;43.832;5.974;2023-04-10T03:25:26;95519.75;;;24.22;58.58
61674;BME280;47573;43.832;5.974;2023-04-10T03:32:08;95510.28;;;24.13;58.78
61674;BME280;47573;43.832;5.974;2023-04-10T03:38:49;95507.56;;;24.13;58.81
61674;BME280;47573;43.832;5.974;2023-04-10T03:45:29;95514.59;;;24.09;58.96
61674;BME280;47573;43.832;5.974;2023-04-10T03:52:11;95518.41;;;24.08;58.83
61674;BME280;47573;43.832;5.974;2023-04-10T03:58:51;95519.97;;;24.04;58.75
61674;BME280;47573;43.832;5.974;2023-04-10T04:05:32;95517.69;;;24.01;58.82
61674;BME280;47573;43.832;5.974;2023-04-10T04:12:14;95534.53;;;23.97;58.82
61674;BME280;47573;43.832;5.974;2023-04-10T04:18:54;95526.25;;;23.92;59.04
61674;BME280;47573;43.832;5.974;2023-04-10T04:25:35;95530.03;;;23.91;58.74
61674;BME280;47573;43.832;5.974;2023-04-10T04:32:17;95538.16;;;23.86;58.52
61674;BME280;47573;43.832;5.974;2023-04-10T04:38:57;95536.47;;;23.85;58.75
61674;BME280;47573;43.832;5.974;2023-04-10T04:45:38;95538.63;;;23.83;58.42
61674;BME280;47573;43.832;5.974;2023-04-10T04:52:20;95550.50;;;23.77;58.45
61674;BME280;47573;43.832;5.974;2023-04-10T04:59:00;95558.69;;;23.77;58.40
61674;BME280;47573;43.832;5.974;2023-04-10T05:05:41;95561.06;;;23.74;58.70
61674;BME280;47573;43.832;5.974;2023-04-10T05:12:23;95570.31;;;23.73;58.42
61674;BME280;47573;43.832;5.974;2023-04-10T05:19:04;95579.22;;;23.68;58.48
61674;BME280;47573;43.832;5.974;2023-04-10T05:25:44;95573.41;;;23.65;58.58
61674;BME280;47573;43.832;5.974;2023-04-10T05:32:26;95578.03;;;23.64;58.75
61674;BME280;47573;43.832;5.974;2023-04-10T05:39:07;95569.75;;;23.59;58.71
61674;BME280;47573;43.832;5.974;2023-04-10T05:45:47;95574.72;;;23.62;58.70
61674;BME280;47573;43.832;5.974;2023-04-10T05:52:29;95594.75;;;23.56;59.04
61674;BME280;47573;43.832;5.974;2023-04-10T05:59:10;95595.72;;;23.50;59.16
61674;BME280;47573;43.832;5.974;2023-04-10T06:05:50;95599.53;;;23.49;58.94
61674;BME280;47573;43.832;5.974;2023-04-10T06:12:32;95605.06;;;23.54;58.98
61674;BME280;47573;43.832;5.974;2023-04-10T06:19:13;95612.19;;;23.55;58.83
61674;BME280;47573;43.832;5.974;2023-04-10T06:25:53;95613.13;;;23.61;58.46
61674;BME280;47573;43.832;5.974;2023-04-10T06:32:35;95614.94;;;23.55;58.90
61674;BME280;47573;43.832;5.974;2023-04-10T06:39:15;95628.22;;;23.52;58.98
61674;BME280;47573;43.832;5.974;2023-04-10T06:45:56;95624.38;;;23.64;58.47
61674;BME280;47573;43.832;5.974;2023-04-10T06:52:38;95624.50;;;23.69;58.02
61674;BME280;47573;43.832;5.974;2023-04-10T06:59:18;95621.88;;;23.74;57.95
61674;BME280;47573;43.832;5.974;2023-04-10T07:05:59;95629.81;;;23.76;57.75
61674;BME280;47573;43.832;5.974;2023-04-10T07:12:41;95633.25;;;23.71;57.96
61674;BME280;47573;43.832;5.974;2023-04-10T07:19:22;95629.81;;;23.76;57.94
61674;BME280;47573;43.832;5.974;2023-04-10T07:26:03;95630.66;;;23.76;57.48
61674;BME280;47573;43.832;5.974;2023-04-10T07:32:45;95627.44;;;23.79;57.41
61674;BME280;47573;43.832;5.974;2023-04-10T07:39:25;95627.06;;;23.87;56.97
61674;BME280;47573;43.832;5.974;2023-04-10T07:46:06;95623.28;;;23.88;57.65
61674;BME280;47573;43.832;5.974;2023-04-10T07:52:48;95629.91;;;23.92;57.05
61674;BME280;47573;43.832;5.974;2023-04-10T07:59:29;95642.13;;;23.90;57.53
61674;BME280;47573;43.832;5.974;2023-04-10T08:06:10;95643.63;;;23.97;57.08
61674;BME280;47573;43.832;5.974;2023-04-10T08:12:52;95645.75;;;23.95;57.21
61674;BME280;47573;43.832;5.974;2023-04-10T08:19:32;95645.75;;;23.95;57.02
61674;BME280;47573;43.832;5.974;2023-04-10T08:26:13;95646.53;;;23.79;48.26
61674;BME280;47573;43.832;5.974;2023-04-10T08:32:55;95648.97;;;23.41;46.08
61674;BME280;47573;43.832;5.974;2023-04-10T08:39:35;95658.63;;;23.60;45.91
61674;BME280;47573;43.832;5.974;2023-04-10T08:46:16;95663.84;;;23.73;46.25
61674;BME280;47573;43.832;5.974;2023-04-10T08:52:59;95670.00;;;23.80;46.40
61674;BME280;47573;43.832;5.974;2023-04-10T08:59:44;95681.13;;;23.90;46.40
61674;BME280;47573;43.832;5.974;2023-04-10T09:06:24;95687.25;;;23.97;46.03
61674;BME280;47573;43.832;5.974;2023-04-10T09:13:06;95688.34;;;24.08;47.17
61674;BME280;47573;43.832;5.974;2023-04-10T09:19:47;95700.59;;;24.06;46.53
61674;BME280;47573;43.832;5.974;2023-04-10T09:26:29;95700.28;;;24.19;45.71
61674;BME280;47573;43.832;5.974;2023-04-10T09:33:22;95697.47;;;24.14;44.43
61674;BME280;47573;43.832;5.974;2023-04-10T09:40:04;95699.69;;;24.28;44.41
61674;BME280;47573;43.832;5.974;2023-04-10T09:46:45;95701.69;;;24.33;44.01
61674;BME280;47573;43.832;5.974;2023-04-10T09:53:27;95685.78;;;24.30;44.35
61674;BME280;47573;43.832;5.974;2023-04-10T10:00:09;95689.13;;;24.32;43.38
61674;BME280;47573;43.832;5.974;2023-04-10T10:06:50;95698.34;;;24.31;44.25
61674;BME280;47573;43.832;5.974;2023-04-10T10:13:36;95693.88;;;24.25;44.17
61674;BME280;47573;43.832;5.974;2023-04-10T10:20:21;95677.50;;;24.25;43.65
61674;BME280;47573;43.832;5.974;2023-04-10T10:27:04;95673.97;;;24.24;43.85
61674;BME280;47573;43.832;5.974;2023-04-10T10:33:50;95669.44;;;24.30;43.33
61674;BME280;47573;43.832;5.974;2023-04-10T10:40:35;95663.97;;;24.30;43.35
61674;BME280;47573;43.832;5.974;2023-04-10T10:47:21;95650.91;;;24.32;43.54
61674;BME280;47573;43.832;5.974;2023-04-10T10:54:28;95647.59;;;24.30;43.94
61674;BME280;47573;43.832;5.974;2023-04-10T11:19:04;95643.50;;;24.44;42.66
61674;BME280;47573;43.832;5.974;2023-04-10T11:25:46;95650.63;;;24.45;42.63
61674;BME280;47573;43.832;5.974;2023-04-10T11:32:27;95627.13;;;24.44;42.43
61674;BME280;47573;43.832;5.974;2023-04-10T11:39:10;95632.44;;;24.50;42.04
61674;BME280;47573;43.832;5.974;2023-04-10T11:45:58;95628.63;;;24.51;41.87
61674;BME280;47573;43.832;5.974;2023-04-10T11:52:39;95632.09;;;24.47;41.46
61674;BME280;47573;43.832;5.974;2023-04-10T11:59:21;95616.88;;;24.51;41.95
61674;BME280;47573;43.832;5.974;2023-04-10T12:06:03;95621.25;;;24.52;41.97
61674;BME280;47573;43.832;5.974;2023-04-10T12:12:43;95620.19;;;24.53;41.66
61674;BME280;47573;43.832;5.974;2023-04-10T12:19:25;95614.63;;;24.48;41.90
61674;BME280;47573;43.832;5.974;2023-04-10T12:26:09;95613.56;;;24.49;41.63
61674;BME280;47573;43.832;5.974;2023-04-10T12:32:50;95621.03;;;24.53;41.98
61674;BME280;47573;43.832;5.974;2023-04-10T12:39:32;95626.31;;;24.60;41.44
61674;BME280;47573;43.832;5.974;2023-04-10T12:46:22;95625.00;;;24.62;40.67
61674;BME280;47573;43.832;5.974;2023-04-10T12:53:04;95619.22;;;24.59;40.99
61674;BME280;47573;43.832;5.974;2023-04-10T12:59:46;95608.63;;;24.62;41.10
61674;BME280;47573;43.832;5.974;2023-04-10T13:06:27;95598.13;;;24.71;39.17
61674;BME280;47573;43.832;5.974;2023-04-10T13:13:07;95580.44;;;24.73;38.66
61674;BME280;47573;43.832;5.974;2023-04-10T13:19:49;95576.72;;;24.80;37.97
61674;BME280;47573;43.832;5.974;2023-04-10T13:26:29;95560.09;;;24.81;39.41
61674;BME280;47573;43.832;5.974;2023-04-10T13:33:10;95563.97;;;24.85;39.80
61674;BME280;47573;43.832;5.974;2023-04-10T13:39:52;95553.03;;;24.85;36.71
61674;BME280;47573;43.832;5.974;2023-04-10T13:46:33;95558.50;;;24.85;36.23
61674;BME280;47573;43.832;5.974;2023-04-10T13:53:13;95560.19;;;24.86;37.80
61674;BME280;47573;43.832;5.974;2023-04-10T13:59:55;95551.56;;;24.94;36.53
61674;BME280;47573;43.832;5.974;2023-04-10T14:06:35;95550.56;;;24.84;36.83
61674;BME280;47573;43.832;5.974;2023-04-10T14:13:16;95530.13;;;24.86;37.09
61674;BME280;47573;43.832;5.974;2023-04-10T14:19:58;95527.63;;;25.01;36.45
61674;BME280;47573;43.832;5.974;2023-04-10T14:26:38;95519.25;;;24.91;38.32
61674;BME280;47573;43.832;5.974;2023-04-10T14:33:19;95513.31;;;24.94;37.65
61674;BME280;47573;43.832;5.974;2023-04-10T14:40:01;95521.09;;;24.86;38.27
61674;BME280;47573;43.832;5.974;2023-04-10T14:46:42;95512.47;;;24.94;39.75
61674;BME280;47573;43.832;5.974;2023-04-10T14:53:22;95519.78;;;24.88;38.68
61674;BME280;47573;43.832;5.974;2023-04-10T15:00:06;95518.28;;;24.97;39.01
61674;BME280;47573;43.832;5.974;2023-04-10T15:06:46;95517.63;;;24.90;40.37
61674;BME280;47573;43.832;5.974;2023-04-10T15:13:27;95524.25;;;24.94;40.82
61674;BME280;47573;43.832;5.974;2023-04-10T15:20:10;95527.56;;;24.96;41.05
61674;BME280;47573;43.832;5.974;2023-04-10T15:26:50;95519.94;;;24.98;41.66
61674;BME280;47573;43.832;5.974;2023-04-10T15:33:31;95519.94;;;24.98;41.69
61674;BME280;47573;43.832;5.974;2023-04-10T15:40:13;95528.69;;;25.00;41.96
61674;BME280;47573;43.832;5.974;2023-04-10T15:46:53;95534.16;;;25.00;42.63
61674;BME280;47573;43.832;5.974;2023-04-10T15:53:34;95535.31;;;25.04;42.66
61674;BME280;47573;43.832;5.974;2023-04-10T16:00:16;95545.66;;;25.02;43.11
61674;BME280;47573;43.832;5.974;2023-04-10T16:06:57;95549.41;;;24.96;43.46
61674;BME280;47573;43.832;5.974;2023-04-10T16:13:37;95546.09;;;24.94;43.63
61674;BME280;47573;43.832;5.974;2023-04-10T16:20:19;95557.19;;;24.88;44.20
61674;BME280;47573;43.832;5.974;2023-04-10T16:27:00;95556.03;;;25.00;43.98
61674;BME280;47573;43.832;5.974;2023-04-10T16:33:40;95554.38;;;24.99;44.52
61674;BME280;47573;43.832;5.974;2023-04-10T16:40:22;95548.91;;;24.99;45.13
61674;BME280;47573;43.832;5.974;2023-04-10T16:47:03;95556.53;;;24.97;45.73
61674;BME280;47573;43.832;5.974;2023-04-10T16:53:43;95568.81;;;25.16;45.92
61674;BME280;47573;43.832;5.974;2023-04-10T17:00:25;95575.38;;;25.15;46.20
61674;BME280;47573;43.832;5.974;2023-04-10T17:07:06;95577.03;;;25.16;46.83
61674;BME280;47573;43.832;5.974;2023-04-10T17:13:46;95576.22;;;25.16;46.96
61674;BME280;47573;43.832;5.974;2023-04-10T17:20:28;95582.25;;;25.18;47.64
61674;BME280;47573;43.832;5.974;2023-04-10T17:27:09;95584.31;;;25.27;47.48
61674;BME280;47573;43.832;5.974;2023-04-10T17:33:50;95577.81;;;25.33;47.44
61674;BME280;47573;43.832;5.974;2023-04-10T17:40:31;95584.72;;;25.36;48.21
61674;BME280;47573;43.832;5.974;2023-04-10T17:47:12;95591.81;;;25.37;48.13
61674;BME280;47573;43.832;5.974;2023-04-10T17:53:53;95594.41;;;25.43;48.59
61674;BME280;47573;43.832;5.974;2023-04-10T18:00:34;95599.88;;;25.43;48.69
61674;BME280;47573;43.832;5.974;2023-04-10T18:07:15;95606.50;;;25.47;48.73
61674;BME280;47573;43.832;5.974;2023-04-10T18:13:55;95624.03;;;25.51;49.04
61674;BME280;47573;43.832;5.974;2023-04-10T18:20:37;95636.78;;;25.63;49.25
61674;BME280;47573;43.832;5.974;2023-04-10T18:27:18;95638.78;;;25.67;49.70
61674;BME280;47573;43.832;5.974;2023-04-10T18:33:58;95638.78;;;25.67;49.58
61674;BME280;47573;43.832;5.974;2023-04-10T18:40:40;95637.44;;;25.70;49.85
61674;BME280;47573;43.832;5.974;2023-04-10T18:47:20;95640.75;;;25.72;49.85
61674;BME280;47573;43.832;5.974;2023-04-10T18:54:01;95638.06;;;25.77;49.78
61674;BME280;47573;43.832;5.974;2023-04-10T19:00:43;95652.47;;;25.89;49.94
61674;BME280;47573;43.832;5.974;2023-04-10T19:07:23;95656.94;;;25.95;50.07
61674;BME280;47573;43.832;5.974;2023-04-10T19:14:04;95663.00;;;25.97;50.40
61674;BME280;47573;43.832;5.974;2023-04-10T19:20:46;95654.25;;;26.00;50.26
61674;BME280;47573;43.832;5.974;2023-04-10T19:27:26;95635.75;;;26.07;50.70
61674;BME280;47573;43.832;5.974;2023-04-10T19:34:07;95628.72;;;26.11;51.17
61674;BME280;47573;43.832;5.974;2023-04-10T19:40:49;95632.03;;;26.13;51.75
61674;BME280;47573;43.832;5.974;2023-04-10T19:47:29;95665.47;;;26.20;52.13
61674;BME280;47573;43.832;5.974;2023-04-10T19:54:10;95681.28;;;26.13;52.48
61674;BME280;47573;43.832;5.974;2023-04-10T20:00:52;95695.66;;;26.25;52.82
61674;BME280;47573;43.832;5.974;2023-04-10T20:07:32;95697.34;;;26.26;52.72
61674;BME280;47573;43.832;5.974;2023-04-10T20:14:14;95700.66;;;26.28;52.84
61674;BME280;47573;43.832;5.974;2023-04-10T20:20:55;95710.41;;;26.24;53.18
61674;BME280;47573;43.832;5.974;2023-04-10T20:27:36;95693.25;;;26.28;53.16
61674;BME280;47573;43.832;5.974;2023-04-10T20:34:16;95685.38;;;26.32;53.41
61674;BME280;47573;43.832;5.974;2023-04-10T20:40:58;95695.97;;;26.28;53.48
61674;BME280;47573;43.832;5.974;2023-04-10T20:47:39;95712.16;;;26.30;53.68
61674;BME280;47573;43.832;5.974;2023-04-10T20:54:19;95720.97;;;26.32;53.51
61674;BME280;47573;43.832;5.974;2023-04-10T21:01:01;95733.06;;;26.36;53.84
61674;BME280;47573;43.832;5.974;2023-04-10T21:07:42;95726.94;;;26.29;53.69
61674;BME280;47573;43.832;5.974;2023-04-10T21:14:22;95727.50;;;26.31;54.02
61674;BME280;47573;43.832;5.974;2023-04-10T21:21:04;95715.47;;;26.32;54.18
61674;BME280;47573;43.832;5.974;2023-04-10T21:27:45;95719.84;;;26.33;54.05
61674;BME280;47573;43.832;5.974;2023-04-10T21:34:25;95713.88;;;26.36;54.08
61674;BME280;47573;43.832;5.974;2023-04-10T21:41:07;95722.91;;;26.37;54.28
61674;BME280;47573;43.832;5.974;2023-04-10T21:47:48;95724.84;;;26.36;54.40
61674;BME280;47573;43.832;5.974;2023-04-10T21:54:28;95719.38;;;26.36;54.36
61674;BME280;47573;43.832;5.974;2023-04-10T22:01:10;95710.06;;;26.37;54.63
61674;BME280;47573;43.832;5.974;2023-04-10T22:07:51;95715.59;;;26.42;54.50
61674;BME280;47573;43.832;5.974;2023-04-10T22:14:31;95707.38;;;26.42;54.81
61674;BME280;47573;43.832;5.974;2023-04-10T22:21:13;95719.97;;;26.43;54.57
61674;BME280;47573;43.832;5.974;2023-04-10T22:27:54;95720.56;;;26.45;54.82
61674;BME280;47573;43.832;5.974;2023-04-10T22:34:34;95715.59;;;26.42;54.62
61674;BME280;47573;43.832;5.974;2023-04-10T22:41:16;95704.09;;;26.40;54.76
61674;BME280;47573;43.832;5.974;2023-04-10T22:47:57;95700.78;;;26.38;55.14
61674;BME280;47573;43.832;5.974;2023-04-10T22:54:37;95681.53;;;26.33;55.16
61674;BME280;47573;43.832;5.974;2023-04-10T23:01:19;95675.63;;;26.19;55.00
61674;BME280;47573;43.832;5.974;2023-04-10T23:08:00;95671.97;;;26.14;55.14
61674;BME280;47573;43.832;5.974;2023-04-10T23:14:40;95671.66;;;26.10;55.25
61674;BME280;47573;43.832;5.974;2023-04-10T23:21:22;95660.88;;;26.04;54.94
61674;BME280;47573;43.832;5.974;2023-04-10T23:28:03;95654.78;;;25.97;55.34
61674;BME280;47573;43.832;5.974;2023-04-10T23:34:44;95644.81;;;25.91;54.97
61674;BME280;47573;43.832;5.974;2023-04-10T23:41:26;95647.50;;;25.86;55.14
61674;BME280;47573;43.832;5.974;2023-04-10T23:48:07;95635.41;;;25.82;55.21
61674;BME280;47573;43.832;5.974;2023-04-10T23:54:47;95654.00;;;25.80;54.83
